Time;durP1;ratioP1;P1;durP2;ratioP2;P2;SDS_P1;SDS_P2;PMS_P1;PMS_P2;Temp;Humidity;BMP_temperature;BMP_pressure;BME280_temperature;BME280_humidity;BME280_pressure;Samples;Min_cycle;Max_cycle;Signal;HPM_P1;HPM_P2
2021/04/28 05:48:32;;;;;;;21.52;11.90;;;;;;;4.05;55.32;100318.89;1740392;78;27012;-54
2021/04/28 05:50:59;;;;;;;22.35;13.00;;;;;;;4.27;55.08;100327.52;1821371;77;25648;-54
2021/04/28 05:53:26;;;;;;;21.73;12.33;;;;;;;4.44;54.61;100321.09;1828844;77;25615;-54
2021/04/28 05:55:53;;;;;;;22.15;12.55;;;;;;;4.61;54.63;100320.28;1822667;77;25676;-53
2021/04/28 05:58:20;;;;;;;20.48;12.88;;;;;;;4.76;54.16;100312.78;1824323;77;25621;-53
2021/04/28 06:00:47;;;;;;;19.25;11.35;;;;;;;4.97;53.96;100309.55;1822397;77;25987;-53
2021/04/28 06:03:13;;;;;;;20.48;11.97;;;;;;;5.16;53.49;100316.48;1823007;77;25586;-54
2021/04/28 06:05:39;;;;;;;22.32;12.05;;;;;;;5.36;53.12;100312.13;1824111;77;25656;-53
2021/04/28 06:08:06;;;;;;;21.27;11.63;;;;;;;5.57;52.90;100312.88;1798653;78;25670;-53
2021/04/28 06:10:35;;;;;;;20.88;11.95;;;;;;;5.76;51.45;100322.44;1817641;77;25567;-54
2021/04/28 06:13:02;;;;;;;25.48;12.23;;;;;;;5.88;51.34;100316.20;1767882;79;25874;-54
2021/04/28 06:15:29;;;;;;;22.13;12.05;;;;;;;6.03;51.40;100318.03;1797580;77;25559;-52
2021/04/28 06:17:55;;;;;;;24.75;12.68;;;;;;;6.22;51.38;100318.18;1828914;77;25944;-53
2021/04/28 06:20:22;;;;;;;20.80;11.50;;;;;;;6.43;51.11;100314.00;1796727;78;25665;-56
2021/04/28 06:22:49;;;;;;;19.35;11.33;;;;;;;6.67;50.81;100321.59;1828423;77;25543;-54
2021/04/28 06:25:16;;;;;;;22.02;11.15;;;;;;;6.90;50.63;100319.26;1829305;77;26573;-55
2021/04/28 06:27:44;;;;;;;18.50;10.28;;;;;;;7.15;50.15;100317.39;1797102;78;25685;-54
2021/04/28 06:30:12;;;;;;;20.23;11.03;;;;;;;7.39;48.68;100316.87;1799485;78;25780;-53
2021/04/28 06:32:39;;;;;;;22.85;10.48;;;;;;;7.62;49.16;100310.40;1827658;77;25606;-54
2021/04/28 06:35:08;;;;;;;17.70;10.08;;;;;;;7.82;48.39;100310.69;1827450;77;26437;-55
2021/04/28 06:37:36;;;;;;;15.55;9.63;;;;;;;8.05;47.95;100309.01;1798194;78;25774;-53
2021/04/28 06:40:06;;;;;;;15.85;9.33;;;;;;;8.28;46.41;100305.98;1794397;78;25625;-53
2021/04/28 06:42:33;;;;;;;17.90;9.80;;;;;;;8.45;46.98;100306.05;1800820;77;25705;-55
2021/04/28 06:45:02;;;;;;;17.12;9.90;;;;;;;8.68;46.79;100305.66;1829301;77;25701;-54
2021/04/28 06:47:28;;;;;;;16.95;8.95;;;;;;;8.94;46.17;100303.33;1803482;78;25610;-53
2021/04/28 06:49:55;;;;;;;16.30;10.50;;;;;;;9.16;45.12;100299.40;1807547;77;26277;-53
2021/04/28 06:52:22;;;;;;;16.97;9.85;;;;;;;9.40;44.14;100307.86;1870504;75;25600;-54
2021/04/28 06:54:49;;;;;;;18.35;9.75;;;;;;;9.54;43.55;100299.75;1874669;75;26208;-54
2021/04/28 06:57:16;;;;;;;15.10;9.15;;;;;;;9.71;42.51;100297.77;1873641;75;25550;-54
2021/04/28 06:59:43;;;;;;;16.57;9.45;;;;;;;9.90;41.39;100295.72;1875930;75;25704;-55
2021/04/28 07:02:09;;;;;;;15.48;9.48;;;;;;;10.13;41.94;100295.77;1874190;75;25770;-56
2021/04/28 07:04:36;;;;;;;15.15;9.00;;;;;;;10.31;41.07;100296.69;1874415;75;25521;-55
2021/04/28 07:07:03;;;;;;;15.10;8.83;;;;;;;10.52;40.85;100290.82;1847659;75;25816;-54
2021/04/28 07:09:30;;;;;;;16.32;9.30;;;;;;;10.78;40.87;100294.48;1875119;75;25642;-54
2021/04/28 07:11:57;;;;;;;13.43;8.78;;;;;;;11.11;39.74;100294.73;1876697;75;25515;-55
2021/04/28 07:14:25;;;;;;;13.20;8.40;;;;;;;11.42;39.10;100296.58;1876340;75;25994;-55
2021/04/28 07:16:52;;;;;;;13.43;8.40;;;;;;;11.68;39.23;100297.45;1878792;75;25572;-55
2021/04/28 07:19:19;;;;;;;11.25;8.20;;;;;;;11.92;37.54;100294.33;1873975;75;25523;-55
2021/04/28 07:21:45;;;;;;;12.28;7.03;;;;;;;11.91;36.29;100289.22;1873174;75;26307;-55
2021/04/28 07:24:13;;;;;;;18.15;7.20;;;;;;;12.04;36.19;100292.34;1877480;75;25944;-55
2021/04/28 07:26:40;;;;;;;10.48;7.37;;;;;;;12.24;36.09;100290.91;1874802;75;25726;-55
2021/04/28 07:29:07;;;;;;;12.23;7.50;;;;;;;12.39;36.27;100302.38;1874890;75;25313;-55
2021/04/28 07:31:34;;;;;;;8.43;6.85;;;;;;;12.43;34.36;100290.56;1870804;75;25717;-55
2021/04/28 07:34:00;;;;;;;9.63;7.17;;;;;;;12.61;34.91;100286.46;1874289;74;25711;-54
2021/04/28 07:36:28;;;;;;;13.90;8.23;;;;;;;12.61;33.22;100287.25;1876276;75;25772;-55
2021/04/28 07:38:57;;;;;;;10.08;7.25;;;;;;;12.63;32.32;100286.93;1874633;75;25740;-56
2021/04/28 07:41:24;;;;;;;11.05;7.22;;;;;;;12.64;33.11;100293.96;1873637;75;25747;-55
2021/04/28 07:43:51;;;;;;;10.88;7.30;;;;;;;12.80;33.24;100294.23;1873354;75;25596;-55
2021/04/28 07:46:19;;;;;;;11.28;7.53;;;;;;;13.01;32.82;100286.20;1875144;75;25577;-54
2021/04/28 07:48:47;;;;;;;9.83;7.58;;;;;;;13.07;31.77;100288.37;1876005;75;25613;-54
2021/04/28 07:51:15;;;;;;;11.85;7.65;;;;;;;13.17;31.49;100281.80;1879455;74;26489;-53
2021/04/28 07:53:41;;;;;;;10.48;7.75;;;;;;;13.30;31.82;100280.53;1874041;74;25617;-56
2021/04/28 07:56:08;;;;;;;10.40;7.78;;;;;;;13.54;32.32;100282.13;1878814;74;25622;-55
2021/04/28 07:58:35;;;;;;;10.53;7.80;;;;;;;13.68;31.68;100280.52;1843670;74;25675;-54
2021/04/28 08:01:01;;;;;;;12.90;8.05;;;;;;;13.75;30.30;100283.50;1878531;74;25551;-55
2021/04/28 08:03:28;;;;;;;12.10;8.03;;;;;;;13.97;31.01;100275.58;1878551;74;26192;-55
2021/04/28 08:05:56;;;;;;;10.58;7.30;;;;;;;14.26;31.47;100270.39;1880094;74;25774;-55
2021/04/28 08:08:22;;;;;;;11.40;7.90;;;;;;;14.52;30.81;100279.11;1878224;74;25573;-55
2021/04/28 08:10:49;;;;;;;10.30;7.78;;;;;;;14.59;30.11;100281.29;1881053;74;25537;-55
2021/04/28 08:13:16;;;;;;;10.53;8.15;;;;;;;14.67;29.80;100279.62;1879026;74;25641;-55
2021/04/28 08:15:43;;;;;;;12.20;7.50;;;;;;;14.71;28.52;100283.25;1840111;76;25832;-56
2021/04/28 08:18:11;;;;;;;12.15;8.23;;;;;;;14.75;29.91;100265.91;1804413;78;25586;-56
2021/04/28 08:20:38;;;;;;;10.72;7.45;;;;;;;15.01;30.26;100272.19;1805349;78;25732;-56
2021/04/28 08:23:07;;;;;;;12.18;8.13;;;;;;;15.27;29.73;100268.58;1825671;76;25621;-55
2021/04/28 08:25:34;;;;;;;10.60;7.37;;;;;;;15.53;29.68;100261.97;1825056;76;25543;-56
2021/04/28 08:28:03;;;;;;;10.38;7.55;;;;;;;15.59;28.50;100262.52;1826088;76;25740;-56
2021/04/28 08:30:30;;;;;;;9.20;6.85;;;;;;;15.58;28.53;100265.83;1826118;76;25585;-56
2021/04/28 08:32:58;;;;;;;10.35;6.78;;;;;;;15.73;28.51;100260.78;1823821;76;25563;-56
2021/04/28 08:35:24;;;;;;;10.15;7.25;;;;;;;15.95;28.79;100256.20;1825883;76;25561;-55
2021/04/28 08:37:51;;;;;;;11.43;7.75;;;;;;;16.20;28.14;100258.85;1826669;76;25547;-55
2021/04/28 08:40:19;;;;;;;10.80;6.95;;;;;;;16.35;27.20;100248.55;1826277;76;28154;-66
2021/04/28 08:42:46;;;;;;;10.82;7.22;;;;;;;16.49;27.39;100256.90;1822308;76;25593;-67
2021/04/28 08:45:16;;;;;;;9.43;7.00;;;;;;;16.73;26.87;100243.08;1829701;76;25564;-66
2021/04/28 08:47:44;;;;;;;7.75;6.33;;;;;;;16.91;27.23;100246.30;1825486;76;25560;-67
2021/04/28 08:50:12;;;;;;;8.28;6.47;;;;;;;17.09;27.40;100243.98;1814533;76;25750;-66
2021/04/28 08:52:39;;;;;;;8.25;6.08;;;;;;;17.49;26.19;100247.64;1796926;78;25755;-66
2021/04/28 08:55:09;;;;;;;9.68;7.20;;;;;;;17.61;25.73;100248.09;1795326;78;25678;-65
2021/04/28 08:57:37;;;;;;;9.98;6.83;;;;;;;17.46;24.80;100237.41;1794743;78;26229;-66
2021/04/28 09:00:08;;;;;;;10.25;6.95;;;;;;;17.30;25.20;100241.56;1796523;78;25600;-67
2021/04/28 09:02:35;;;;;;;10.75;7.55;;;;;;;17.46;25.75;100239.56;1797112;77;25552;-66
2021/04/28 09:05:12;;;;;;;9.65;6.85;;;;;;;17.66;25.60;100239.61;1796626;78;25756;-67
2021/04/28 09:07:43;;;;;;;8.50;6.60;;;;;;;17.67;24.97;100218.74;1796896;78;25645;-67
2021/04/28 09:10:14;;;;;;;9.53;6.80;;;;;;;17.66;24.89;100216.36;1796131;78;25631;-67
2021/04/28 09:13:00;;;;;;;8.28;6.60;;;;;;;17.55;23.47;100225.69;1797298;78;25527;-66
2021/04/28 09:15:43;;;;;;;9.43;6.22;;;;;;;17.44;24.03;100218.62;1794013;78;25573;-65
2021/04/28 09:18:14;;;;;;;9.13;7.55;;;;;;;17.58;24.25;100215.41;1795891;77;26576;-66
2021/04/28 09:21:03;;;;;;;8.98;6.80;;;;;;;17.85;24.97;100219.09;1797496;78;25707;-67
2021/04/28 09:23:37;;;;;;;8.07;6.00;;;;;;;18.24;24.83;100216.36;1747769;80;26121;-67
2021/04/28 09:26:07;;;;;;;10.18;7.10;;;;;;;18.49;24.42;100210.56;1751759;80;25571;-67
2021/04/28 09:28:36;;;;;;;9.60;6.75;;;;;;;18.54;23.17;100218.47;1745667;79;25661;-66
2021/04/28 09:31:13;;;;;;;8.33;7.33;;;;;;;18.46;23.75;100212.06;1812996;77;25785;-67
2021/04/28 09:33:55;;;;;;;9.30;7.00;;;;;;;18.46;23.30;100200.33;1780561;79;25719;-65
2021/04/28 09:36:36;;;;;;;11.25;6.87;;;;;;;18.60;23.24;100194.30;1781349;79;25690;-65
2021/04/28 09:39:10;;;;;;;13.25;7.85;;;;;;;18.81;23.66;100200.14;1765421;79;25690;-66
2021/04/28 09:41:44;;;;;;;9.03;7.20;;;;;;;18.91;21.78;100208.33;1739673;80;25650;-67
2021/04/28 09:44:22;;;;;;;9.25;7.42;;;;;;;18.56;22.53;100194.80;1737896;80;26001;-67
2021/04/28 09:47:12;;;;;;;8.75;7.20;;;;;;;18.45;23.37;100183.67;1761274;80;25617;-67
2021/04/28 09:50:00;;;;;;;12.88;7.53;;;;;;;18.64;23.49;100191.03;1762408;80;26138;-66
2021/04/28 09:52:37;;;;;;;9.90;6.78;;;;;;;19.06;24.03;100178.41;1762412;80;26333;-65
2021/04/28 09:55:13;;;;;;;12.05;7.70;;;;;;;19.62;23.78;100176.23;1772750;78;25642;-65
2021/04/28 09:57:45;;;;;;;7.37;6.55;;;;;;;20.04;22.96;100169.69;1779899;78;26717;-66
2021/04/28 10:00:28;;;;;;;10.25;6.60;;;;;;;20.19;23.18;100165.10;1814655;77;25903;-67
2021/04/28 10:03:10;;;;;;;9.50;7.12;;;;;;;20.38;22.67;100167.44;1861613;75;25711;-67
2021/04/28 10:05:40;;;;;;;9.90;7.03;;;;;;;20.14;20.93;100170.38;1859358;75;25585;-68
2021/04/28 10:08:20;;;;;;;10.55;7.20;;;;;;;19.69;21.28;100165.92;1834527;75;25817;-67
2021/04/28 10:11:00;;;;;;;9.65;7.58;;;;;;;19.51;21.40;100162.95;1853480;75;26260;-67
2021/04/28 10:13:26;;;;;;;;;;;;;;;19.53;21.70;100166.91;1859336;75;25761;-67
2021/04/28 10:15:53;;;;;;;9.18;7.60;;;;;;;19.67;21.33;100162.17;1852828;75;25581;-66
2021/04/28 10:18:23;;;;;;;8.78;7.40;;;;;;;19.63;22.03;100158.61;1853851;75;25534;-67
2021/04/28 10:20:50;;;;;;;8.58;6.92;;;;;;;19.67;22.35;100151.20;1861759;75;25577;-66
2021/04/28 10:23:19;;;;;;;8.55;7.33;;;;;;;20.06;22.00;100141.27;1853301;75;25789;-66
2021/04/28 10:25:50;;;;;;;9.45;8.05;;;;;;;20.34;22.38;100149.56;1856030;75;25949;-66
2021/04/28 10:28:17;;;;;;;11.97;7.95;;;;;;;20.44;20.98;100146.11;1851429;75;25536;-66
2021/04/28 10:30:49;;;;;;;10.15;7.33;;;;;;;20.26;20.93;100139.11;1853159;75;25689;-65
2021/04/28 10:33:29;;;;;;;10.28;7.60;;;;;;;20.22;21.56;100150.62;1858368;75;25719;-67
2021/04/28 10:35:58;;;;;;;10.58;6.95;;;;;;;20.28;20.96;100135.98;1849901;75;25779;-67
2021/04/28 10:38:26;;;;;;;12.28;7.37;;;;;;;20.43;21.78;100155.54;1858866;75;25765;-67
2021/04/28 10:40:55;;;;;;;11.60;7.47;;;;;;;20.49;21.14;100145.77;1855260;75;25616;-66
2021/04/28 10:43:38;;;;;;;11.50;8.63;;;;;;;20.49;21.14;100145.77;1858664;75;26048;-66
2021/04/28 10:46:20;;;;;;;8.50;7.22;;;;;;;20.06;20.32;100129.50;1792963;79;25615;-67
2021/04/28 10:48:47;;;;;;;10.03;7.90;;;;;;;19.92;20.74;100127.38;1795125;77;27421;-67
2021/04/28 10:51:36;;;;;;;9.03;7.45;;;;;;;20.14;21.59;100121.52;1797669;77;25564;-66
2021/04/28 10:54:29;;;;;;;10.88;7.75;;;;;;;20.50;20.97;100123.22;1874851;75;25565;-67
2021/04/28 10:57:06;;;;;;;10.32;8.08;;;;;;;20.40;21.13;100121.95;1843660;76;25518;-55
2021/04/28 11:02:18;;;;;;;9.38;7.78;;;;;;;20.53;20.51;100124.63;1827444;75;26057;-55
2021/04/28 11:04:47;;;;;;;9.45;7.58;;;;;;;20.30;20.07;100127.56;1798277;77;25544;-55
2021/04/28 11:07:20;;;;;;;12.00;7.67;;;;;;;20.15;20.65;100128.00;1801896;77;25788;-56
2021/04/28 11:09:48;;;;;;;10.25;7.30;;;;;;;20.19;21.39;100104.70;1778904;77;25664;-56
2021/04/28 11:12:16;;;;;;;8.40;7.47;;;;;;;20.46;20.01;100088.05;1801296;77;25573;-56
2021/04/28 11:14:47;;;;;;;11.48;8.00;;;;;;;20.33;19.90;100104.05;1802888;77;25586;-55
2021/04/28 11:17:23;;;;;;;8.60;7.70;;;;;;;20.12;19.91;100112.88;1799956;77;25739;-55
2021/04/28 11:19:51;;;;;;;11.45;8.45;;;;;;;20.01;20.23;100115.53;1797724;77;25973;-56
2021/04/28 11:22:29;;;;;;;9.47;8.47;;;;;;;19.82;20.30;100102.80;1807301;77;25560;-55
2021/04/28 11:25:16;;;;;;;12.50;7.70;;;;;;;19.63;20.06;100102.94;1804851;77;25678;-56
2021/04/28 11:27:54;;;;;;;11.70;8.60;;;;;;;19.53;20.75;100102.45;1768890;78;25618;-56
2021/04/28 11:30:42;;;;;;;10.43;8.20;;;;;;;19.27;20.52;100098.41;1716821;80;25814;-56
2021/04/28 11:33:33;;;;;;;9.83;8.35;;;;;;;19.35;21.16;100094.59;1690423;83;28120;-56
2021/04/28 11:36:07;;;;;;;10.55;8.48;;;;;;;19.56;20.69;100092.67;1748896;80;25841;-55
2021/04/28 11:38:46;;;;;;;13.38;8.25;;;;;;;19.66;20.72;100092.00;1874744;75;26321;-56
2021/04/28 11:41:23;;;;;;;11.03;7.85;;;;;;;19.56;20.75;100092.67;1845360;76;25677;-56
2021/04/28 11:43:57;;;;;;;12.05;8.73;;;;;;;19.73;21.49;100080.31;1771752;79;25705;-56
2021/04/28 11:46:31;;;;;;;12.50;9.10;;;;;;;20.06;20.89;100087.73;1777556;80;25650;-56
2021/04/28 11:49:02;;;;;;;11.50;8.45;;;;;;;20.03;20.58;100079.47;1777213;80;25816;-56
2021/04/28 11:51:33;;;;;;;11.20;8.55;;;;;;;20.25;21.28;100062.00;1778752;80;26286;-56
2021/04/28 11:54:06;;;;;;;14.47;8.43;;;;;;;20.78;21.59;100063.56;1782258;80;25718;-56
2021/04/28 11:56:43;;;;;;;11.30;9.58;;;;;;;21.29;21.36;100061.06;1779806;80;25714;-57
2021/04/28 11:59:21;;;;;;;10.88;9.40;;;;;;;21.45;19.60;100059.55;1780830;80;25678;-57
2021/04/28 12:02:00;;;;;;;11.48;9.10;;;;;;;21.36;20.30;100056.36;1779414;79;25651;-57
2021/04/28 12:04:37;;;;;;;12.47;9.63;;;;;;;21.53;19.92;100051.33;1777122;80;26060;-57
2021/04/28 12:07:06;;;;;;;14.13;9.68;;;;;;;21.33;19.49;100059.09;1781063;80;25892;-56
2021/04/28 12:09:46;;;;;;;11.15;8.65;;;;;;;21.08;19.58;100050.18;1755399;80;32580;-56
2021/04/28 12:12:26;;;;;;;11.08;8.85;;;;;;;20.98;19.96;100042.67;1778642;80;25602;-57
2021/04/28 12:15:13;;;;;;;12.73;8.85;;;;;;;21.11;19.78;100048.60;1778784;79;25714;-57
2021/04/28 12:17:47;;;;;;;12.55;8.63;;;;;;;21.24;20.48;100040.99;1779045;80;25639;-59
2021/04/28 12:20:22;;;;;;;11.30;9.20;;;;;;;21.59;20.54;100036.81;1775957;79;25679;-56
2021/04/28 12:22:49;;;;;;;13.88;9.45;;;;;;;21.55;18.57;100033.24;1782391;79;25986;-55
2021/04/28 12:25:19;;;;;;;12.63;9.13;;;;;;;21.07;19.07;100032.09;1779613;80;25724;-57
2021/04/28 12:27:47;;;;;;;;;;;;;;;20.92;19.25;100030.45;1783324;80;25705;-57
2021/04/28 12:30:21;;;;;;;10.88;8.55;;;;;;;21.00;19.65;100029.32;1777447;80;25674;-57
2021/04/28 12:32:56;;;;;;;12.68;9.20;;;;;;;21.06;19.75;100018.94;1776558;79;25568;-57
2021/04/28 12:35:32;;;;;;;9.20;8.15;;;;;;;21.16;19.33;100011.88;1780100;80;26174;-57
2021/04/28 12:38:09;;;;;;;9.05;7.75;;;;;;;21.01;19.08;100016.56;1779547;80;25666;-57
2021/04/28 12:40:49;;;;;;;10.40;7.72;;;;;;;20.79;19.00;100023.12;1778180;80;25714;-56
2021/04/28 12:43:20;;;;;;;10.05;8.30;;;;;;;20.69;19.11;100002.67;1782530;80;25832;-56
2021/04/28 12:45:47;;;;;;;10.20;7.70;;;;;;;20.52;18.71;99993.91;1780841;80;25689;-56
2021/04/28 12:48:20;;;;;;;7.97;7.17;;;;;;;20.58;18.61;99999.04;1779956;80;25958;-56
2021/04/28 12:50:50;;;;;;;7.85;7.12;;;;;;;20.45;19.27;99994.44;1779556;79;25763;-58
2021/04/28 12:53:20;;;;;;;8.50;7.25;;;;;;;20.43;18.93;99999.53;1779826;79;25656;-57
2021/04/28 12:55:56;;;;;;;9.25;7.15;;;;;;;20.21;18.49;99991.17;1777393;80;25758;-56
2021/04/28 12:58:24;;;;;;;7.72;6.95;;;;;;;19.88;18.31;99994.23;1775582;80;26057;-56
2021/04/28 13:00:53;;;;;;;10.30;7.33;;;;;;;19.74;18.91;99970.77;1777108;80;25708;-55
2021/04/28 13:03:31;;;;;;;7.85;7.05;;;;;;;19.81;19.65;99975.56;1778979;79;26345;-56
2021/04/28 13:06:02;;;;;;;9.05;7.37;;;;;;;20.00;19.73;99978.06;1779967;80;25853;-56
2021/04/28 13:08:40;;;;;;;9.38;7.20;;;;;;;20.18;19.79;99971.34;1778793;80;25649;-56
2021/04/28 13:11:22;;;;;;;8.93;6.70;;;;;;;20.33;19.65;99973.00;1777881;80;25757;-56
2021/04/28 13:13:58;;;;;;;8.33;6.92;;;;;;;20.49;18.96;99967.20;1778125;80;26568;-56
2021/04/28 13:16:44;;;;;;;10.13;7.37;;;;;;;20.54;18.50;99967.43;1774655;80;25718;-56
2021/04/28 13:19:26;;;;;;;8.78;6.95;;;;;;;20.40;18.75;99977.76;1780032;80;25889;-56
2021/04/28 13:22:08;;;;;;;7.85;7.05;;;;;;;20.19;19.16;99970.75;1780491;80;25746;-56
2021/04/28 13:24:38;;;;;;;8.40;7.37;;;;;;;20.18;18.82;99963.10;1780614;79;25608;-56
2021/04/28 13:27:10;;;;;;;12.58;7.50;;;;;;;19.95;18.81;99958.64;1777764;79;25847;-56
2021/04/28 13:30:05;;;;;;;7.33;6.58;;;;;;;19.72;18.25;99956.06;1779885;80;25622;-56
2021/04/28 13:32:44;;;;;;;8.10;7.22;;;;;;;19.55;19.03;99951.22;1779013;80;25668;-56
2021/04/28 13:35:29;;;;;;;9.68;7.35;;;;;;;19.53;18.77;99950.22;1780419;79;25844;-56
2021/04/28 13:38:00;;;;;;;10.28;7.15;;;;;;;19.56;19.28;99942.61;1774921;79;25676;-56
2021/04/28 13:40:38;;;;;;;9.43;8.38;;;;;;;19.74;19.46;99933.17;1768337;79;26103;-56
2021/04/28 13:43:13;;;;;;;8.65;7.67;;;;;;;19.84;19.09;99946.00;1770723;79;25679;-56
2021/04/28 13:45:42;;;;;;;8.28;7.28;;;;;;;19.74;19.58;99935.91;1771769;79;25629;-56
2021/04/28 13:48:09;;;;;;;9.85;7.40;;;;;;;19.77;19.49;99942.61;1768087;79;25777;-56
2021/04/28 13:50:37;;;;;;;9.65;7.65;;;;;;;19.61;19.10;99945.56;1770745;79;25583;-56
2021/04/28 13:53:04;;;;;;;11.93;7.40;;;;;;;19.27;19.41;99925.08;1767558;79;26475;-56
2021/04/28 13:55:32;;;;;;;10.53;6.90;;;;;;;19.15;19.77;99911.65;1769978;79;25676;-56
2021/04/28 13:57:59;;;;;;;9.00;6.90;;;;;;;19.26;20.36;99907.06;1770380;79;25679;-55
2021/04/28 14:00:28;;;;;;;12.55;6.83;;;;;;;19.45;20.47;99908.80;1777338;79;25546;-56
2021/04/28 14:02:54;;;;;;;7.97;7.08;;;;;;;19.71;20.56;99909.80;1779180;79;26268;-57
2021/04/28 14:05:21;;;;;;;7.65;6.08;;;;;;;19.68;19.18;99907.80;1777844;79;28036;-54
2021/04/28 14:07:48;;;;;;;8.60;6.90;;;;;;;19.52;19.76;99914.34;1779420;79;26128;-54
2021/04/28 14:10:15;;;;;;;8.45;6.37;;;;;;;19.37;20.11;99912.05;1778790;79;26412;-55
2021/04/28 14:12:43;;;;;;;7.95;6.72;;;;;;;19.23;20.32;99902.33;1777713;79;25836;-53
2021/04/28 14:15:11;;;;;;;12.63;6.40;;;;;;;19.27;19.92;99900.99;1776704;79;25600;-55
2021/04/28 14:17:38;;;;;;;10.58;6.50;;;;;;;19.21;20.08;99908.78;1774793;79;26698;-56
2021/04/28 14:20:08;;;;;;;10.85;6.83;;;;;;;19.16;19.66;99907.75;1776295;79;25621;-56
2021/04/28 14:22:36;;;;;;;9.55;6.65;;;;;;;19.00;19.67;99902.48;1777268;79;25596;-55
2021/04/28 14:25:05;;;;;;;8.93;6.35;;;;;;;18.89;19.56;99908.45;1749027;80;25671;-56
2021/04/28 14:27:32;;;;;;;11.22;6.83;;;;;;;18.78;19.59;99901.42;1776864;79;25604;-54
2021/04/28 14:29:59;;;;;;;11.63;7.03;;;;;;;18.59;19.56;99898.27;1775773;79;25924;-53
2021/04/28 14:32:26;;;;;;;11.03;6.45;;;;;;;18.46;19.47;99895.78;1776390;79;25659;-53
2021/04/28 14:34:53;;;;;;;8.95;6.62;;;;;;;18.31;19.95;99889.14;1777217;79;25623;-53
2021/04/28 14:37:20;;;;;;;7.97;6.37;;;;;;;18.28;20.22;99885.95;1777607;79;25580;-54
2021/04/28 14:39:47;;;;;;;10.43;6.35;;;;;;;18.26;20.42;99888.88;1780683;79;25570;-54
2021/04/28 14:42:14;;;;;;;6.72;6.08;;;;;;;18.20;20.58;99889.78;1782840;79;25883;-54
2021/04/28 14:44:40;;;;;;;9.68;6.95;;;;;;;18.07;19.57;99886.46;1781002;79;26325;-53
2021/04/28 14:47:07;;;;;;;7.45;5.90;;;;;;;17.77;19.22;99889.11;1781382;79;25604;-53
2021/04/28 14:49:35;;;;;;;8.38;6.50;;;;;;;17.44;19.14;99889.77;1781151;79;25637;-52
2021/04/28 14:52:01;;;;;;;10.82;6.58;;;;;;;17.33;19.80;99892.30;1779032;79;25682;-53
2021/04/28 14:54:27;;;;;;;10.85;6.47;;;;;;;17.24;20.02;99875.36;1781859;79;26249;-54
2021/04/28 14:56:54;;;;;;;8.55;6.10;;;;;;;17.22;20.89;99882.56;1780468;79;25765;-53
2021/04/28 14:59:21;;;;;;;7.92;6.12;;;;;;;17.29;21.18;99883.27;1777401;79;25584;-55
2021/04/28 15:01:48;;;;;;;8.28;6.60;;;;;;;17.36;20.89;99890.21;1782731;79;25752;-54
2021/04/28 15:04:15;;;;;;;11.18;6.03;;;;;;;17.25;20.70;99887.89;1780545;79;25525;-54
2021/04/28 15:06:42;;;;;;;6.85;6.12;;;;;;;17.13;20.68;99882.80;1782961;79;26000;-54
2021/04/28 15:09:08;;;;;;;8.98;6.47;;;;;;;17.03;20.56;99885.34;1778702;79;25713;-54
2021/04/28 15:11:35;;;;;;;7.60;5.95;;;;;;;16.83;20.89;99874.98;1779269;79;26022;-53
2021/04/28 15:14:01;;;;;;;6.30;5.55;;;;;;;16.77;20.93;99864.36;1779603;79;25527;-55
2021/04/28 15:16:28;;;;;;;7.90;5.70;;;;;;;16.67;21.07;99864.13;1751056;79;26217;-54
2021/04/28 15:18:59;;;;;;;9.28;6.12;;;;;;;16.58;21.08;99861.63;1779989;79;25798;-54
2021/04/28 15:21:27;;;;;;;6.25;5.65;;;;;;;16.44;20.87;99861.55;1785798;79;25741;-54
2021/04/28 15:23:53;;;;;;;9.50;5.95;;;;;;;16.34;20.52;99862.13;1781796;78;25624;-55
2021/04/28 15:26:21;;;;;;;7.40;6.12;;;;;;;16.20;20.84;99862.62;1781128;79;25949;-53
2021/04/28 15:28:49;;;;;;;8.90;5.90;;;;;;;16.06;20.45;99863.10;1781736;79;25720;-54
2021/04/28 15:31:19;;;;;;;8.55;5.47;;;;;;;15.90;20.24;99857.47;1779983;79;25758;-53
2021/04/28 15:33:46;;;;;;;6.42;5.33;;;;;;;15.77;20.71;99862.26;1780680;79;25703;-53
2021/04/28 15:36:12;;;;;;;8.13;5.85;;;;;;;15.70;21.04;99857.39;1779651;79;25587;-52
2021/04/28 15:38:41;;;;;;;7.62;6.62;;;;;;;15.65;21.24;99860.39;1784694;79;25720;-53
2021/04/28 15:41:08;;;;;;;9.35;6.55;;;;;;;15.60;21.22;99851.91;1789614;79;25719;-54
2021/04/28 15:43:34;;;;;;;8.40;5.87;;;;;;;15.52;21.20;99854.23;1788169;79;28010;-55
2021/04/28 15:46:01;;;;;;;9.48;5.97;;;;;;;15.47;21.48;99862.09;1789759;79;25528;-55
2021/04/28 15:48:27;;;;;;;9.63;5.55;;;;;;;15.39;21.12;99850.83;1789197;79;25715;-53
2021/04/28 15:50:54;;;;;;;6.80;5.80;;;;;;;15.31;21.46;99852.57;1762666;79;26363;-54
2021/04/28 15:53:21;;;;;;;7.92;5.58;;;;;;;15.26;21.47;99854.20;1789210;79;25635;-53
2021/04/28 15:55:48;;;;;;;7.60;5.97;;;;;;;15.20;21.53;99850.14;1788618;79;27226;-53
2021/04/28 15:58:15;;;;;;;7.95;5.67;;;;;;;15.13;21.42;99845.88;1788670;79;25654;-53
2021/04/28 16:00:44;;;;;;;9.65;5.70;;;;;;;15.04;21.28;99850.13;1790072;79;25581;-54
2021/04/28 16:03:11;;;;;;;7.47;5.83;;;;;;;14.98;21.38;99848.02;1789274;79;26285;-54
2021/04/28 16:05:38;;;;;;;8.60;6.42;;;;;;;14.91;21.26;99843.98;1760856;79;25601;-54
2021/04/28 16:08:05;;;;;;;8.55;6.05;;;;;;;14.86;21.16;99849.66;1789876;79;25764;-54
2021/04/28 16:10:31;;;;;;;11.08;6.28;;;;;;;14.78;21.42;99845.19;1788904;79;25648;-54
2021/04/28 16:12:58;;;;;;;8.83;5.85;;;;;;;14.72;21.58;99853.37;1787120;79;26216;-54
2021/04/28 16:15:25;;;;;;;9.28;6.35;;;;;;;14.64;21.77;99839.34;1787894;79;25981;-55
2021/04/28 16:17:53;;;;;;;8.90;6.30;;;;;;;14.58;22.02;99838.77;1789272;79;25778;-54
2021/04/28 16:20:20;;;;;;;9.70;6.33;;;;;;;14.55;22.22;99836.16;1773400;79;25815;-53
2021/04/28 16:22:49;;;;;;;16.62;6.47;;;;;;;14.51;22.37;99839.94;1790135;79;25565;-54
2021/04/28 16:25:17;;;;;;;8.10;6.42;;;;;;;14.47;22.44;99841.20;1788725;79;25614;-54
2021/04/28 16:27:44;;;;;;;9.80;6.17;;;;;;;14.43;22.48;99837.58;1789058;79;26320;-54
2021/04/28 16:30:14;;;;;;;9.53;5.60;;;;;;;14.38;22.53;99832.38;1789743;79;25655;-54
2021/04/28 16:32:42;;;;;;;9.73;6.53;;;;;;;14.33;22.76;99826.61;1788279;79;25908;-54
2021/04/28 16:35:11;;;;;;;6.58;5.78;;;;;;;14.31;22.85;99834.91;1788901;79;26451;-54
2021/04/28 16:37:37;;;;;;;10.40;7.03;;;;;;;14.27;23.00;99829.91;1789038;79;25686;-54
2021/04/28 16:40:06;;;;;;;12.40;6.55;;;;;;;14.22;23.16;99832.87;1785774;79;26064;-55
2021/04/28 16:42:32;;;;;;;10.25;6.08;;;;;;;14.16;23.31;99828.25;1779181;79;25635;-55
2021/04/28 16:44:59;;;;;;;17.07;6.17;;;;;;;14.09;23.37;99825.33;1780756;79;25818;-54
2021/04/28 16:47:26;;;;;;;9.13;6.40;;;;;;;14.03;23.37;99833.49;1780609;79;26379;-55
2021/04/28 16:49:53;;;;;;;10.55;6.00;;;;;;;13.95;23.44;99829.20;1780939;79;25602;-55
2021/04/28 16:52:20;;;;;;;9.35;6.42;;;;;;;13.90;23.53;99832.73;1781400;79;26116;-56
2021/04/28 16:54:47;;;;;;;10.95;6.28;;;;;;;13.83;23.54;99828.66;1782743;79;25626;-55
2021/04/28 16:57:13;;;;;;;7.50;5.33;;;;;;;13.77;23.68;99829.23;1780460;79;25715;-54
2021/04/28 16:59:40;;;;;;;8.68;5.85;;;;;;;13.73;23.67;99830.48;1783551;79;25757;-55
2021/04/28 17:02:06;;;;;;;7.97;5.67;;;;;;;13.67;23.92;99826.97;1780832;79;25729;-55
2021/04/28 17:04:33;;;;;;;7.80;5.22;;;;;;;13.61;23.97;99823.70;1780827;79;25692;-55
2021/04/28 17:07:00;;;;;;;9.83;5.22;;;;;;;13.55;24.01;99822.34;1767917;79;25691;-56
2021/04/28 17:09:27;;;;;;;10.53;5.50;;;;;;;13.48;24.25;99821.55;1779793;79;25812;-54
2021/04/28 17:11:55;;;;;;;13.98;5.53;;;;;;;13.41;24.30;99827.54;1781700;79;25929;-55
2021/04/28 17:14:21;;;;;;;7.50;5.78;;;;;;;13.32;24.39;99832.30;1781011;79;25750;-55
2021/04/28 17:16:48;;;;;;;11.60;5.25;;;;;;;13.25;24.39;99826.61;1778360;79;25623;-55
2021/04/28 17:19:14;;;;;;;8.63;5.12;;;;;;;13.19;24.59;99829.31;1781059;79;25776;-55
2021/04/28 17:21:43;;;;;;;9.70;5.55;;;;;;;13.12;24.75;99826.36;1782556;79;26334;-54
2021/04/28 17:24:12;;;;;;;72.27;32.53;;;;;;;13.04;24.93;99835.63;1750956;79;25705;-55
2021/04/28 17:26:39;;;;;;;9.57;6.43;;;;;;;12.96;25.32;99832.45;1734849;79;26284;-56
2021/04/28 17:29:05;;;;;;;9.28;5.85;;;;;;;12.88;25.10;99832.75;1782885;79;25577;-55